createdAt,value
2022-07-29T00:00:18.387Z,16.08
2022-07-29T00:02:49.994Z,16.03
2022-07-29T00:05:20.570Z,16.03
2022-07-29T00:07:51.497Z,15.98
2022-07-29T00:10:22.127Z,15.93
2022-07-29T00:12:52.655Z,15.92
2022-07-29T00:15:23.322Z,15.89
2022-07-29T00:17:54.156Z,15.82
2022-07-29T00:20:24.902Z,15.90
2022-07-29T00:22:55.468Z,15.86
2022-07-29T00:25:25.950Z,15.80
2022-07-29T00:27:56.414Z,15.76
2022-07-29T00:30:27.007Z,15.76
2022-07-29T00:32:57.412Z,15.74
2022-07-29T00:35:44.777Z,15.80
2022-07-29T00:38:18.170Z,15.70
2022-07-29T00:40:49.646Z,15.64
2022-07-29T00:43:21.451Z,15.58
2022-07-29T00:45:51.908Z,15.58
2022-07-29T00:48:22.439Z,15.55
2022-07-29T00:50:53.337Z,15.64
2022-07-29T00:53:23.944Z,15.52
2022-07-29T00:55:56.592Z,15.43
2022-07-29T00:58:27.996Z,15.43
2022-07-29T01:00:59.821Z,15.42
2022-07-29T01:03:30.464Z,15.46
2022-07-29T01:06:01.739Z,15.46
2022-07-29T01:08:34.075Z,15.43
2022-07-29T01:11:04.874Z,15.39
2022-07-29T01:13:36.115Z,15.37
2022-07-29T01:16:09.689Z,15.35
2022-07-29T01:18:46.277Z,15.34
2022-07-29T01:21:22.432Z,15.32
2022-07-29T01:24:02.199Z,15.28
2022-07-29T01:26:54.214Z,15.30
2022-07-29T01:29:40.567Z,15.30
2022-07-29T01:32:22.600Z,15.22
2022-07-29T01:34:55.922Z,15.33
2022-07-29T01:37:41.507Z,15.29
2022-07-29T01:40:17.929Z,15.29
2022-07-29T01:42:54.787Z,15.21
2022-07-29T01:45:37.262Z,15.21
2022-07-29T01:48:22.333Z,15.28
2022-07-29T01:50:57.515Z,15.28
2022-07-29T01:53:40.149Z,15.17
2022-07-29T01:56:12.356Z,15.16
2022-07-29T01:58:45.768Z,15.07
2022-07-29T02:01:18.546Z,15.07
2022-07-29T02:03:50.931Z,15.04
2022-07-29T02:06:24.046Z,15.12
2022-07-29T02:08:56.046Z,14.98
2022-07-29T02:11:26.669Z,14.95
2022-07-29T02:14:00.033Z,14.87
2022-07-29T02:16:32.870Z,14.86
2022-07-29T02:19:04.801Z,14.86
2022-07-29T02:21:37.253Z,14.90
2022-07-29T02:24:09.168Z,14.78
2022-07-29T02:26:42.082Z,14.86
2022-07-29T02:29:16.236Z,14.78
2022-07-29T02:31:48.543Z,14.68
2022-07-29T02:34:23.105Z,14.71
2022-07-29T02:36:56.082Z,14.74
2022-07-29T02:39:29.709Z,14.76
2022-07-29T02:42:03.213Z,14.78
2022-07-29T02:44:36.994Z,14.76
2022-07-29T02:47:16.312Z,14.77
2022-07-29T02:49:49.839Z,14.74
2022-07-29T02:52:45.395Z,14.68
2022-07-29T02:55:35.950Z,14.73
2022-07-29T02:58:09.465Z,14.74
2022-07-29T03:00:42.467Z,14.62
2022-07-29T03:03:19.365Z,14.71
2022-07-29T03:05:49.904Z,14.68
2022-07-29T03:08:20.518Z,14.69
2022-07-29T03:10:51.941Z,14.70
2022-07-29T03:13:23.018Z,14.65
2022-07-29T03:15:54.982Z,14.76
2022-07-29T03:18:25.919Z,14.68
2022-07-29T03:20:57.218Z,14.74
2022-07-29T03:23:28.850Z,14.68
2022-07-29T03:26:01.045Z,14.69
2022-07-29T03:28:31.913Z,14.70
2022-07-29T03:31:03.096Z,14.67
2022-07-29T03:33:35.087Z,14.80
2022-07-29T03:36:05.794Z,14.74
2022-07-29T03:38:38.398Z,14.74
2022-07-29T03:41:12.347Z,14.71
2022-07-29T03:43:49.589Z,14.70
2022-07-29T03:46:19.684Z,14.72
2022-07-29T03:48:52.899Z,14.86
2022-07-29T03:51:33.761Z,14.78
2022-07-29T03:53:55.978Z,14.77
2022-07-29T03:56:28.778Z,14.80
2022-07-29T03:59:00.385Z,14.78
2022-07-29T04:01:32.928Z,14.92
2022-07-29T04:04:05.429Z,14.89
2022-07-29T04:06:43.975Z,14.94
2022-07-29T04:09:14.959Z,14.85
2022-07-29T04:11:59.804Z,14.98
2022-07-29T04:14:19.262Z,15.03
2022-07-29T04:16:49.906Z,14.99
2022-07-29T04:19:20.351Z,15.01
2022-07-29T04:21:50.972Z,15.20
2022-07-29T04:24:21.548Z,15.00
2022-07-29T04:26:52.484Z,15.10
2022-07-29T04:29:23.053Z,15.06
2022-07-29T04:31:53.557Z,15.20
2022-07-29T04:34:28.062Z,15.19
2022-07-29T04:36:56.667Z,15.26
2022-07-29T04:39:27.268Z,15.27
2022-07-29T04:42:01.016Z,15.25
2022-07-29T04:44:31.810Z,15.42
2022-07-29T04:47:04.005Z,15.54
2022-07-29T04:49:34.369Z,15.64
2022-07-29T04:52:05.091Z,15.50
2022-07-29T04:54:35.674Z,15.62
2022-07-29T04:57:06.099Z,15.58
2022-07-29T04:59:36.752Z,15.66
2022-07-29T05:02:07.257Z,15.90
2022-07-29T05:04:37.848Z,16.16
2022-07-29T05:07:10.872Z,15.99
2022-07-29T05:09:41.764Z,16.08
2022-07-29T05:12:12.858Z,16.58
2022-07-29T05:14:46.010Z,16.73
2022-07-29T05:17:16.517Z,16.79
2022-07-29T05:19:47.348Z,16.72
2022-07-29T05:22:20.337Z,16.75
2022-07-29T05:24:52.714Z,17.73
2022-07-29T05:27:22.987Z,17.90
2022-07-29T05:29:53.659Z,17.22
2022-07-29T05:32:24.080Z,17.18
2022-07-29T05:34:54.639Z,17.55
2022-07-29T05:37:25.071Z,17.14
2022-07-29T05:39:59.084Z,16.87
2022-07-29T05:42:30.175Z,16.66
2022-07-29T05:45:04.006Z,16.48
2022-07-29T05:47:34.607Z,16.47
2022-07-29T05:50:09.634Z,16.41
2022-07-29T05:52:41.966Z,16.51
2022-07-29T05:55:14.098Z,16.68
2022-07-29T05:57:46.591Z,16.80
2022-07-29T06:00:17.936Z,16.91
2022-07-29T06:02:48.489Z,17.29
2022-07-29T06:05:19.766Z,17.86
2022-07-29T06:07:51.624Z,17.94
2022-07-29T06:10:26.927Z,18.30
2022-07-29T06:12:56.144Z,18.67
2022-07-29T06:15:26.641Z,18.70
2022-07-29T06:18:00.113Z,19.58
2022-07-29T06:20:32.873Z,20.74
2022-07-29T06:23:05.404Z,20.38
2022-07-29T06:25:37.721Z,20.30
2022-07-29T06:28:08.235Z,19.85
2022-07-29T06:30:38.968Z,19.34
2022-07-29T06:33:09.860Z,19.34
2022-07-29T06:35:44.706Z,19.46
2022-07-29T06:38:30.829Z,19.44
2022-07-29T06:41:03.692Z,19.11
2022-07-29T06:43:52.556Z,19.33
2022-07-29T06:46:21.740Z,18.96
2022-07-29T06:48:53.802Z,18.73
2022-07-29T06:51:24.701Z,18.72
2022-07-29T06:54:02.917Z,19.26
2022-07-29T06:56:38.484Z,18.87
2022-07-29T06:59:08.110Z,19.38
2022-07-29T07:01:45.878Z,19.68
2022-07-29T07:04:16.570Z,19.81
2022-07-29T07:06:47.927Z,19.61
2022-07-29T07:09:18.392Z,19.34
2022-07-29T07:11:49.647Z,20.05
2022-07-29T07:14:23.083Z,19.97
2022-07-29T07:16:54.929Z,20.20
2022-07-29T07:19:25.967Z,20.53
2022-07-29T07:21:56.448Z,20.32
2022-07-29T07:24:26.934Z,20.29
2022-07-29T07:26:58.927Z,20.48
2022-07-29T07:29:29.883Z,20.46
2022-07-29T07:32:01.331Z,20.61
2022-07-29T07:34:32.408Z,20.91
2022-07-29T07:37:04.132Z,21.16
2022-07-29T07:39:34.761Z,21.87
2022-07-29T07:42:06.901Z,21.47
2022-07-29T07:44:57.247Z,21.88
2022-07-29T07:47:12.484Z,21.24
2022-07-29T07:49:43.040Z,21.21
2022-07-29T07:52:16.323Z,20.74
2022-07-29T07:54:47.046Z,21.04
2022-07-29T07:57:19.702Z,20.95
2022-07-29T07:59:50.207Z,20.90
2022-07-29T08:02:26.103Z,20.98
2022-07-29T08:04:56.688Z,21.39
2022-07-29T08:07:27.336Z,21.66
2022-07-29T08:09:57.820Z,21.90
2022-07-29T08:12:28.233Z,21.60
2022-07-29T08:14:58.693Z,21.86
2022-07-29T08:17:29.435Z,22.11
2022-07-29T08:19:59.904Z,22.22
2022-07-29T08:22:30.368Z,22.30
2022-07-29T08:25:00.997Z,22.38
2022-07-29T08:27:43.491Z,22.14
2022-07-29T08:30:06.110Z,22.08
2022-07-29T08:32:53.120Z,22.26
2022-07-29T08:35:10.647Z,22.36
2022-07-29T08:37:41.245Z,22.22
2022-07-29T08:40:12.431Z,22.52
2022-07-29T08:42:43.600Z,22.38
2022-07-29T08:45:14.426Z,22.77
2022-07-29T08:47:47.174Z,22.72
2022-07-29T08:50:17.644Z,22.88
2022-07-29T08:52:48.741Z,22.96
2022-07-29T08:55:21.503Z,23.09
2022-07-29T08:57:57.422Z,23.13
2022-07-29T09:00:25.556Z,22.96
2022-07-29T09:03:01.102Z,22.78
2022-07-29T09:05:31.979Z,22.75
2022-07-29T09:08:03.442Z,23.00
2022-07-29T09:10:34.118Z,23.19
2022-07-29T09:13:04.527Z,23.15
2022-07-29T09:15:34.990Z,23.35
2022-07-29T09:18:05.709Z,23.45
2022-07-29T09:20:53.953Z,23.62
2022-07-29T09:23:25.286Z,23.64
2022-07-29T09:25:55.795Z,23.61
2022-07-29T09:28:26.588Z,23.36
2022-07-29T09:31:03.549Z,23.28
2022-07-29T09:33:40.152Z,23.41
2022-07-29T09:36:12.467Z,23.55
2022-07-29T09:38:43.053Z,23.79
2022-07-29T09:41:15.022Z,23.88
2022-07-29T09:43:49.051Z,24.07
2022-07-29T09:46:19.523Z,24.11
2022-07-29T09:49:10.160Z,24.28
2022-07-29T09:51:41.311Z,24.16
2022-07-29T09:54:29.035Z,23.89
2022-07-29T09:56:59.537Z,24.06
2022-07-29T09:59:30.010Z,24.19
2022-07-29T10:02:01.363Z,24.41
2022-07-29T10:04:44.629Z,24.40
2022-07-29T10:07:16.799Z,24.62
2022-07-29T10:09:58.698Z,24.32
2022-07-29T10:12:29.192Z,24.21
2022-07-29T10:15:00.049Z,23.96
2022-07-29T10:17:30.738Z,24.11
2022-07-29T10:20:03.081Z,24.44
2022-07-29T10:22:52.452Z,24.64
2022-07-29T10:25:06.001Z,24.78
2022-07-29T10:27:37.928Z,24.69
2022-07-29T10:30:09.508Z,24.70
2022-07-29T10:32:46.147Z,24.38
2022-07-29T10:35:28.700Z,24.27
2022-07-29T10:38:08.322Z,24.63
2022-07-29T10:41:08.538Z,24.66
2022-07-29T10:43:46.297Z,24.96
2022-07-29T10:46:18.159Z,25.19
2022-07-29T10:49:15.946Z,25.58
2022-07-29T10:52:06.485Z,25.07
2022-07-29T10:54:52.508Z,25.11
2022-07-29T10:57:54.098Z,25.17
2022-07-29T11:00:08.668Z,25.14
2022-07-29T11:02:43.759Z,25.11
2022-07-29T11:05:20.713Z,24.92
2022-07-29T11:08:19.509Z,25.10
2022-07-29T11:10:42.762Z,25.16
2022-07-29T11:13:15.016Z,25.01
2022-07-29T11:16:00.196Z,25.43
2022-07-29T11:18:30.789Z,25.52
2022-07-29T11:21:02.239Z,25.53
2022-07-29T11:23:37.593Z,25.32
2022-07-29T11:26:18.652Z,25.44
2022-07-29T11:29:01.184Z,25.55
2022-07-29T11:31:42.632Z,25.32
2022-07-29T11:34:39.123Z,25.66
2022-07-29T11:37:13.758Z,25.52
2022-07-29T11:39:47.731Z,25.73
2022-07-29T11:42:32.369Z,25.63
2022-07-29T11:45:42.534Z,25.89
2022-07-29T11:47:53.700Z,25.81
2022-07-29T11:50:35.416Z,26.04
2022-07-29T11:53:15.379Z,25.89
2022-07-29T11:55:51.769Z,26.12
2022-07-29T11:58:25.053Z,25.71
2022-07-29T12:00:56.513Z,25.79
2022-07-29T12:03:33.452Z,25.95
2022-07-29T12:06:02.866Z,25.44
2022-07-29T12:08:37.048Z,25.64
2022-07-29T12:11:11.160Z,25.61
2022-07-29T12:13:43.373Z,25.95
2022-07-29T12:16:14.714Z,25.97
2022-07-29T12:18:59.801Z,26.14
2022-07-29T12:21:31.086Z,25.90
2022-07-29T12:24:08.965Z,25.99
2022-07-29T12:26:35.805Z,25.82
2022-07-29T12:29:11.511Z,25.68
2022-07-29T12:31:43.589Z,25.53
2022-07-29T12:34:16.156Z,25.94
2022-07-29T12:36:47.013Z,26.15
2022-07-29T12:39:21.390Z,26.01
2022-07-29T12:41:54.274Z,26.33
2022-07-29T12:44:26.957Z,26.29
2022-07-29T12:47:04.914Z,26.48
2022-07-29T12:49:38.074Z,26.40
2022-07-29T12:52:30.837Z,26.61
2022-07-29T12:55:04.588Z,26.78
2022-07-29T12:57:54.186Z,26.86
2022-07-29T13:00:26.963Z,26.53
2022-07-29T13:02:59.635Z,26.75
2022-07-29T13:05:49.489Z,26.72
2022-07-29T13:08:22.182Z,26.61
2022-07-29T13:10:53.026Z,27.00
2022-07-29T13:13:23.634Z,26.60
2022-07-29T13:16:00.196Z,26.41
2022-07-29T13:18:33.979Z,26.50
2022-07-29T13:21:16.162Z,26.74
2022-07-29T13:23:47.126Z,26.83
2022-07-29T13:26:19.246Z,27.02
2022-07-29T13:28:50.948Z,27.17
2022-07-29T13:31:22.986Z,26.79
2022-07-29T13:33:53.734Z,26.69
2022-07-29T13:36:25.016Z,26.90
2022-07-29T13:38:58.838Z,27.16
2022-07-29T13:41:31.734Z,27.40
2022-07-29T13:44:03.347Z,26.78
2022-07-29T13:46:36.314Z,26.90
2022-07-29T13:49:09.647Z,26.71
2022-07-29T13:51:41.085Z,27.33
2022-07-29T13:54:12.255Z,27.02
2022-07-29T13:56:43.174Z,27.12
2022-07-29T13:59:14.370Z,27.18
2022-07-29T14:01:46.101Z,27.61
2022-07-29T14:04:17.287Z,27.20
2022-07-29T14:06:49.798Z,27.21
2022-07-29T14:09:20.297Z,27.32
2022-07-29T14:11:52.463Z,27.28
2022-07-29T14:14:24.601Z,27.41
2022-07-29T14:16:55.208Z,27.41
2022-07-29T14:19:26.255Z,27.40
2022-07-29T14:21:58.288Z,27.40
2022-07-29T14:24:29.138Z,27.27
2022-07-29T14:27:01.774Z,27.22
2022-07-29T14:29:37.440Z,27.27
2022-07-29T14:32:04.869Z,27.38
2022-07-29T14:34:36.611Z,27.68
2022-07-29T14:37:09.485Z,27.53
2022-07-29T14:39:43.227Z,27.41
2022-07-29T14:42:14.133Z,27.11
2022-07-29T14:44:45.252Z,27.12
2022-07-29T14:47:18.754Z,27.25
2022-07-29T14:49:50.728Z,26.84
2022-07-29T14:52:22.378Z,26.96
2022-07-29T14:54:52.986Z,27.01
2022-07-29T14:57:25.177Z,26.79
2022-07-29T14:59:55.692Z,26.52
2022-07-29T15:02:45.681Z,26.38
2022-07-29T15:04:58.332Z,26.34
2022-07-29T15:07:31.501Z,26.40
2022-07-29T15:10:02.152Z,26.45
2022-07-29T15:15:09.888Z,26.70
2022-07-29T15:17:41.546Z,27.05
2022-07-29T15:20:13.295Z,27.20
2022-07-29T15:22:44.194Z,27.28
2022-07-29T15:25:16.327Z,27.21
2022-07-29T15:27:52.381Z,27.46
2022-07-29T15:30:33.637Z,27.67
2022-07-29T15:32:56.013Z,27.60
2022-07-29T15:35:23.700Z,27.23
2022-07-29T15:37:54.305Z,27.17
2022-07-29T15:40:24.909Z,27.08
2022-07-29T15:42:55.606Z,27.18
2022-07-29T15:45:32.552Z,27.39
2022-07-29T15:47:58.596Z,27.32
2022-07-29T15:50:31.134Z,27.42
2022-07-29T15:53:01.806Z,27.38
2022-07-29T15:55:33.054Z,27.43
2022-07-29T15:58:03.519Z,27.16
2022-07-29T16:00:34.172Z,27.05
2022-07-29T16:03:04.950Z,26.67
2022-07-29T16:05:40.309Z,26.57
2022-07-29T16:08:10.807Z,26.58
2022-07-29T16:10:41.415Z,26.38
2022-07-29T16:13:11.969Z,26.36
2022-07-29T16:15:44.117Z,26.26
2022-07-29T16:18:14.777Z,26.32
2022-07-29T16:20:45.306Z,26.40
2022-07-29T16:23:16.537Z,26.57
2022-07-29T16:26:01.841Z,26.51
2022-07-29T16:28:19.227Z,26.52
2022-07-29T16:30:51.344Z,26.51
2022-07-29T16:33:21.955Z,26.45
2022-07-29T16:35:53.165Z,26.38
2022-07-29T16:38:23.886Z,26.32
2022-07-29T16:40:54.547Z,26.20
2022-07-29T16:43:25.122Z,26.11
2022-07-29T16:45:55.719Z,26.13
2022-07-29T16:48:26.434Z,26.18
2022-07-29T16:50:57.064Z,26.19
2022-07-29T16:53:30.075Z,26.14
2022-07-29T16:55:59.727Z,26.18
2022-07-29T16:58:30.227Z,26.12
2022-07-29T17:01:01.766Z,26.15
2022-07-29T17:03:32.366Z,26.18
2022-07-29T17:06:02.979Z,26.32
2022-07-29T17:08:33.537Z,26.52
2022-07-29T17:11:04.050Z,26.47
2022-07-29T17:13:34.540Z,26.45
2022-07-29T17:16:05.096Z,26.63
2022-07-29T17:18:35.616Z,26.75
2022-07-29T17:21:06.256Z,26.72
2022-07-29T17:23:36.851Z,26.84
2022-07-29T17:26:07.392Z,26.62
2022-07-29T17:28:39.569Z,26.54
2022-07-29T17:31:10.282Z,26.49
2022-07-29T17:33:40.682Z,26.62
2022-07-29T17:36:12.986Z,26.31
2022-07-29T17:38:43.382Z,26.23
2022-07-29T17:41:17.284Z,26.21
2022-07-29T17:43:47.676Z,25.97
2022-07-29T17:46:19.638Z,26.07
2022-07-29T17:48:50.302Z,25.77
2022-07-29T17:51:21.101Z,25.60
2022-07-29T17:53:51.532Z,25.56
2022-07-29T17:56:22.238Z,25.54
2022-07-29T17:58:53.425Z,25.60
2022-07-29T18:01:25.170Z,25.52
2022-07-29T18:03:59.817Z,25.33
2022-07-29T18:06:28.194Z,25.31
2022-07-29T18:08:58.719Z,25.24
2022-07-29T18:11:30.851Z,25.25
2022-07-29T18:14:02.523Z,25.17
2022-07-29T18:16:33.222Z,25.09
2022-07-29T18:19:03.757Z,25.07
2022-07-29T18:21:43.444Z,25.05
2022-07-29T18:24:08.490Z,24.98
2022-07-29T18:26:39.488Z,24.91
2022-07-29T18:29:10.448Z,24.88
2022-07-29T18:31:41.394Z,24.83
2022-07-29T18:34:12.199Z,24.86
2022-07-29T18:36:42.821Z,24.79
2022-07-29T18:39:20.242Z,24.78
2022-07-29T18:41:50.171Z,24.68
2022-07-29T18:44:21.934Z,24.53
2022-07-29T18:46:55.087Z,24.51
2022-07-29T18:49:25.704Z,24.37
2022-07-29T18:51:56.965Z,24.33
2022-07-29T18:54:27.556Z,24.36
2022-07-29T18:56:58.367Z,24.36
2022-07-29T18:59:30.339Z,24.37
2022-07-29T19:02:00.953Z,24.25
2022-07-29T19:04:31.613Z,24.30
2022-07-29T19:07:03.437Z,24.18
2022-07-29T19:09:34.634Z,24.20
2022-07-29T19:12:07.502Z,24.09
2022-07-29T19:14:38.390Z,24.10
2022-07-29T19:17:10.638Z,24.02
2022-07-29T19:19:41.391Z,23.92
2022-07-29T19:22:13.297Z,23.82
2022-07-29T19:24:45.197Z,23.80
2022-07-29T19:27:18.862Z,23.74
2022-07-29T19:29:58.773Z,23.66
2022-07-29T19:32:27.226Z,23.68
2022-07-29T19:35:18.957Z,23.59
2022-07-29T19:37:49.545Z,23.50
2022-07-29T19:40:20.240Z,23.45
2022-07-29T19:42:52.628Z,23.36
2022-07-29T19:45:26.469Z,23.20
2022-07-29T19:48:01.445Z,23.13
2022-07-29T19:50:30.881Z,23.05
2022-07-29T19:53:02.192Z,23.13
2022-07-29T19:55:32.738Z,23.01
2022-07-29T19:58:04.409Z,22.98
2022-07-29T20:00:36.482Z,22.85
2022-07-29T20:03:08.601Z,22.79
2022-07-29T20:05:39.485Z,22.78
2022-07-29T20:08:10.064Z,22.70
2022-07-29T20:10:40.528Z,22.62
2022-07-29T20:13:11.325Z,22.65
2022-07-29T20:15:41.997Z,22.61
2022-07-29T20:18:12.606Z,22.52
2022-07-29T20:20:43.466Z,22.54
2022-07-29T20:23:14.185Z,22.52
2022-07-29T20:25:45.579Z,22.48
2022-07-29T20:28:16.429Z,22.44
2022-07-29T20:30:47.578Z,22.40
2022-07-29T20:33:19.825Z,22.35
2022-07-29T20:35:50.495Z,22.31
2022-07-29T20:38:21.027Z,22.30
2022-07-29T20:40:53.320Z,22.32
2022-07-29T20:43:23.887Z,22.23
2022-07-29T20:45:54.390Z,22.16
2022-07-29T20:48:25.073Z,22.08
2022-07-29T20:50:55.499Z,22.12
2022-07-29T20:53:25.894Z,22.09
2022-07-29T20:55:56.446Z,22.12
2022-07-29T20:58:27.041Z,22.12
2022-07-29T21:00:57.603Z,22.10
2022-07-29T21:03:28.180Z,22.07
2022-07-29T21:05:59.316Z,22.00
2022-07-29T21:08:29.864Z,22.02
2022-07-29T21:11:00.439Z,21.99
2022-07-29T21:13:32.608Z,22.02
2022-07-29T21:16:07.585Z,21.98
2022-07-29T21:18:36.964Z,21.98
2022-07-29T21:21:08.335Z,21.97
2022-07-29T21:23:38.761Z,21.87
2022-07-29T21:26:12.857Z,22.04
2022-07-29T21:28:41.904Z,21.90
2022-07-29T21:31:14.401Z,21.91
2022-07-29T21:33:47.439Z,21.82
2022-07-29T21:38:50.220Z,21.82
2022-07-29T21:41:22.058Z,21.88
2022-07-29T21:43:52.578Z,21.80
2022-07-29T21:46:24.717Z,21.76
2022-07-29T21:48:55.421Z,21.84
2022-07-29T21:51:25.843Z,21.74
2022-07-29T21:53:56.306Z,21.76
2022-07-29T21:56:27.715Z,21.69
2022-07-29T21:58:58.503Z,21.68
2022-07-29T22:01:29.066Z,21.70
2022-07-29T22:04:01.178Z,21.70
2022-07-29T22:06:33.348Z,21.70
2022-07-29T22:09:05.523Z,21.73
2022-07-29T22:11:36.758Z,21.66
2022-07-29T22:14:07.402Z,21.68
2022-07-29T22:16:38.036Z,21.70
2022-07-29T22:19:08.632Z,21.66
2022-07-29T22:21:39.275Z,21.54
2022-07-29T22:24:10.765Z,21.55
2022-07-29T22:26:41.701Z,21.59
2022-07-29T22:29:12.288Z,21.51
2022-07-29T22:31:43.213Z,21.48
2022-07-29T22:34:14.521Z,21.52
2022-07-29T22:36:45.098Z,21.47
2022-07-29T22:39:16.201Z,21.40
2022-07-29T22:41:46.786Z,21.36
2022-07-29T22:44:17.574Z,21.44
2022-07-29T22:46:48.048Z,21.37
2022-07-29T22:49:18.673Z,21.39
2022-07-29T22:51:49.499Z,21.32
2022-07-29T22:54:22.311Z,21.29
2022-07-29T22:56:52.299Z,21.31
2022-07-29T22:59:22.753Z,21.26
2022-07-29T23:01:53.295Z,21.20
2022-07-29T23:04:23.795Z,21.17
2022-07-29T23:06:54.706Z,21.16
2022-07-29T23:09:25.201Z,21.12
2022-07-29T23:11:55.630Z,21.16
2022-07-29T23:14:27.943Z,21.11
2022-07-29T23:16:58.611Z,21.12
2022-07-29T23:19:29.341Z,21.02
2022-07-29T23:21:59.818Z,21.00
2022-07-29T23:24:30.263Z,20.95
2022-07-29T23:27:01.093Z,20.90
2022-07-29T23:29:36.583Z,20.86
2022-07-29T23:32:05.790Z,20.87
2022-07-29T23:34:37.690Z,20.76
2022-07-29T23:37:08.326Z,20.69
2022-07-29T23:39:38.798Z,20.74
2022-07-29T23:42:09.304Z,20.74
2022-07-29T23:44:39.748Z,20.66
2022-07-29T23:47:10.230Z,20.67
2022-07-29T23:49:41.198Z,20.60
2022-07-29T23:52:11.659Z,20.62
2022-07-29T23:54:42.231Z,20.52
2022-07-29T23:57:12.710Z,20.46
2022-07-29T23:59:43.145Z,20.44
